Airfield :
LOGIN :

Register | Disclaimer

   EN    FR    IT 

 










Legend :    VFR   Marginal VFR   IFR   Intensive IFR   Very Intensive IFR
Visi :
Ceiling :
>= 8 km
>= 3000ft
5 to 8 km
1000 to 3000 ft
1500m to 5 km
500 to 1000 ft
800 to 1500m
200 to 500 ft
< 800m
< 200 ft
Symbols :   Thunderstorms  Fog  Heavy snow  Heavy precipitations  Wind > 20 kt
SIGMETs :     Misc.  Thunderstorms  Icing  Turbulence  Mountain Waves  Volcanic Ashes






- Airport Elevation : 90 ft
- IATA code : NTE


LFRS - Nantes

CURRENT METAR :
  • 041500Z AUTO 34006KT 310V020 9999 BKN013 BKN019 OVC024 18/16 Q1011 TEMPO BKN009 BKN020TCU

EXPIRED METARs :
  • 041430Z AUTO 33008KT 300V010 9999 BKN012 OVC019 18/16 Q1011 TEMPO BKN009 BKN020TCU
  • 041400Z AUTO 34006KT 310V010 9999 OVC011 19/16 Q1011 TEMPO BKN009 BKN020TCU
  • 041330Z AUTO 33008KT 300V010 9999 BKN012 OVC017 19/17 Q1010 TEMPO BKN009 BKN020TCU
  • 041300Z AUTO 34006KT 310V020 9999 BKN012 OVC018 19/17 Q1010 TEMPO BKN009 BKN020TCU
  • 041230Z AUTO 31007KT 270V340 9999 BKN009 BKN016 OVC021 20/19 Q1010 TEMPO BKN009 BKN020TCU

TAF TAF LFRS
Valid from the 04 at 12:00 until the 05 at 18:00 UTC


041100Z 0412/0518 25006KT 9999 SCT010 BKN030
BECMG 0412/0414 34008KT
TEMPO 0412/0416 -SHRA BKN009 BKN020TCU
BECMG 0420/0422 24005KT
TEMPO 0506/0515 RA
BECMG 0509/0511 21015G25KT
TEMPO 0515/0518 -SHRA BKN030TCU
ATIS : +33 2 40 05 12 74



MET'MAP, your aeronautical weather chart ! - Copyright ORBIFLY December 2007 - Disclaimer

ORBIFLY MET'MAP TEAM :

Programming & Development : Alexandra Zaïnal
Concept & original design : Baudouin d'Aumeries
Assistance for programming : Marc-Olivier Méhu
Technical & hardware support : Manuel Goepfert

Contact : metmap@orbifly.com




SOURCES & CREDITS :

   NOAA